sensor_id;sensor_type;location;lat;lon;timestamp;P1;durP1;ratioP1;P2;durP2;ratioP2
45806;SDS011;31507;51.494;7.518;2023-03-01T00:01:19;14.00;;;9.88;;
45806;SDS011;31507;51.494;7.518;2023-03-01T00:03:46;18.50;;;10.57;;
45806;SDS011;31507;51.494;7.518;2023-03-01T00:06:12;16.25;;;10.07;;
45806;SDS011;31507;51.494;7.518;2023-03-01T00:08:38;14.95;;;10.15;;
45806;SDS011;31507;51.494;7.518;2023-03-01T00:13:45;16.05;;;10.48;;
45806;SDS011;31507;51.494;7.518;2023-03-01T00:16:14;15.48;;;10.80;;
45806;SDS011;31507;51.494;7.518;2023-03-01T00:18:43;14.70;;;9.90;;
45806;SDS011;31507;51.494;7.518;2023-03-01T00:21:09;14.40;;;9.98;;
45806;SDS011;31507;51.494;7.518;2023-03-01T00:23:35;18.02;;;11.02;;
45806;SDS011;31507;51.494;7.518;2023-03-01T00:26:02;16.02;;;11.00;;
45806;SDS011;31507;51.494;7.518;2023-03-01T00:28:31;17.80;;;11.07;;
45806;SDS011;31507;51.494;7.518;2023-03-01T00:31:02;17.80;;;11.07;;
45806;SDS011;31507;51.494;7.518;2023-03-01T00:33:31;16.85;;;10.82;;
45806;SDS011;31507;51.494;7.518;2023-03-01T00:35:58;14.90;;;10.80;;
45806;SDS011;31507;51.494;7.518;2023-03-01T00:38:24;18.08;;;10.50;;
45806;SDS011;31507;51.494;7.518;2023-03-01T00:40:49;22.48;;;11.50;;
45806;SDS011;31507;51.494;7.518;2023-03-01T00:43:15;22.27;;;11.80;;
45806;SDS011;31507;51.494;7.518;2023-03-01T00:45:41;15.55;;;10.82;;
45806;SDS011;31507;51.494;7.518;2023-03-01T00:48:06;18.88;;;11.68;;
45806;SDS011;31507;51.494;7.518;2023-03-01T00:50:32;22.48;;;12.15;;
45806;SDS011;31507;51.494;7.518;2023-03-01T00:52:58;21.08;;;12.00;;
45806;SDS011;31507;51.494;7.518;2023-03-01T00:55:24;19.15;;;11.57;;
45806;SDS011;31507;51.494;7.518;2023-03-01T00:57:50;19.52;;;12.15;;
45806;SDS011;31507;51.494;7.518;2023-03-01T01:00:16;18.02;;;12.27;;
45806;SDS011;31507;51.494;7.518;2023-03-01T01:02:43;19.08;;;12.05;;
45806;SDS011;31507;51.494;7.518;2023-03-01T01:05:09;19.92;;;11.70;;
45806;SDS011;31507;51.494;7.518;2023-03-01T01:07:35;18.88;;;12.18;;
45806;SDS011;31507;51.494;7.518;2023-03-01T01:10:00;16.77;;;11.82;;
45806;SDS011;31507;51.494;7.518;2023-03-01T01:12:26;19.45;;;12.35;;
45806;SDS011;31507;51.494;7.518;2023-03-01T01:14:52;29.90;;;12.25;;
45806;SDS011;31507;51.494;7.518;2023-03-01T01:17:18;22.27;;;11.98;;
45806;SDS011;31507;51.494;7.518;2023-03-01T01:19:44;23.92;;;12.88;;
45806;SDS011;31507;51.494;7.518;2023-03-01T01:22:10;19.45;;;12.27;;
45806;SDS011;31507;51.494;7.518;2023-03-01T01:24:35;22.63;;;13.45;;
45806;SDS011;31507;51.494;7.518;2023-03-01T01:27:01;21.98;;;13.15;;
45806;SDS011;31507;51.494;7.518;2023-03-01T01:29:27;19.10;;;12.13;;
45806;SDS011;31507;51.494;7.518;2023-03-01T01:31:52;19.45;;;13.20;;
45806;SDS011;31507;51.494;7.518;2023-03-01T01:34:19;25.67;;;15.15;;
45806;SDS011;31507;51.494;7.518;2023-03-01T01:36:50;19.80;;;14.38;;
45806;SDS011;31507;51.494;7.518;2023-03-01T01:39:18;18.48;;;12.68;;
45806;SDS011;31507;51.494;7.518;2023-03-01T01:41:45;20.02;;;13.55;;
45806;SDS011;31507;51.494;7.518;2023-03-01T01:44:14;23.92;;;13.88;;
45806;SDS011;31507;51.494;7.518;2023-03-01T01:49:37;24.08;;;13.25;;
45806;SDS011;31507;51.494;7.518;2023-03-01T01:52:11;20.23;;;13.00;;
45806;SDS011;31507;51.494;7.518;2023-03-01T01:57:20;20.55;;;13.80;;
45806;SDS011;31507;51.494;7.518;2023-03-01T01:59:50;20.05;;;13.38;;
45806;SDS011;31507;51.494;7.518;2023-03-01T02:02:19;21.17;;;12.80;;
45806;SDS011;31507;51.494;7.518;2023-03-01T02:04:46;20.65;;;14.98;;
45806;SDS011;31507;51.494;7.518;2023-03-01T02:07:17;23.95;;;14.00;;
45806;SDS011;31507;51.494;7.518;2023-03-01T02:09:47;20.10;;;13.00;;
45806;SDS011;31507;51.494;7.518;2023-03-01T02:12:15;23.50;;;13.80;;
45806;SDS011;31507;51.494;7.518;2023-03-01T02:14:43;25.92;;;13.60;;
45806;SDS011;31507;51.494;7.518;2023-03-01T02:17:09;23.77;;;14.25;;
45806;SDS011;31507;51.494;7.518;2023-03-01T02:19:44;24.50;;;14.13;;
45806;SDS011;31507;51.494;7.518;2023-03-01T02:22:32;18.23;;;11.98;;
45806;SDS011;31507;51.494;7.518;2023-03-01T02:30:47;21.55;;;13.55;;
45806;SDS011;31507;51.494;7.518;2023-03-01T02:33:34;23.10;;;12.27;;
45806;SDS011;31507;51.494;7.518;2023-03-01T02:36:14;23.40;;;12.80;;
45806;SDS011;31507;51.494;7.518;2023-03-01T02:38:42;20.20;;;12.77;;
45806;SDS011;31507;51.494;7.518;2023-03-01T02:41:08;25.20;;;14.40;;
45806;SDS011;31507;51.494;7.518;2023-03-01T02:43:38;20.80;;;13.43;;
45806;SDS011;31507;51.494;7.518;2023-03-01T02:46:12;25.27;;;14.05;;
45806;SDS011;31507;51.494;7.518;2023-03-01T02:48:44;20.27;;;13.65;;
45806;SDS011;31507;51.494;7.518;2023-03-01T02:51:13;23.08;;;14.07;;
45806;SDS011;31507;51.494;7.518;2023-03-01T02:56:17;24.52;;;13.95;;
45806;SDS011;31507;51.494;7.518;2023-03-01T02:58:43;22.10;;;13.70;;
45806;SDS011;31507;51.494;7.518;2023-03-01T03:01:16;22.48;;;15.32;;
45806;SDS011;31507;51.494;7.518;2023-03-01T03:03:43;24.67;;;15.00;;
45806;SDS011;31507;51.494;7.518;2023-03-01T03:06:08;21.95;;;15.00;;
45806;SDS011;31507;51.494;7.518;2023-03-01T03:08:34;24.50;;;15.20;;
45806;SDS011;31507;51.494;7.518;2023-03-01T03:11:00;21.88;;;14.77;;
45806;SDS011;31507;51.494;7.518;2023-03-01T03:13:26;29.95;;;15.88;;
45806;SDS011;31507;51.494;7.518;2023-03-01T03:15:54;28.60;;;15.70;;
45806;SDS011;31507;51.494;7.518;2023-03-01T03:18:23;22.58;;;14.82;;
45806;SDS011;31507;51.494;7.518;2023-03-01T03:20:51;23.20;;;16.00;;
45806;SDS011;31507;51.494;7.518;2023-03-01T03:23:18;27.85;;;15.98;;
45806;SDS011;31507;51.494;7.518;2023-03-01T03:25:50;24.63;;;15.35;;
45806;SDS011;31507;51.494;7.518;2023-03-01T03:28:16;25.52;;;14.70;;
45806;SDS011;31507;51.494;7.518;2023-03-01T03:30:42;28.35;;;16.80;;
45806;SDS011;31507;51.494;7.518;2023-03-01T03:33:09;26.00;;;16.60;;
45806;SDS011;31507;51.494;7.518;2023-03-01T03:35:40;30.55;;;16.63;;
45806;SDS011;31507;51.494;7.518;2023-03-01T03:38:08;27.90;;;17.02;;
45806;SDS011;31507;51.494;7.518;2023-03-01T03:40:41;27.40;;;16.47;;
45806;SDS011;31507;51.494;7.518;2023-03-01T03:43:15;30.00;;;16.80;;
45806;SDS011;31507;51.494;7.518;2023-03-01T03:45:46;24.48;;;16.50;;
45806;SDS011;31507;51.494;7.518;2023-03-01T03:48:13;24.52;;;15.63;;
45806;SDS011;31507;51.494;7.518;2023-03-01T03:50:39;29.25;;;16.88;;
45806;SDS011;31507;51.494;7.518;2023-03-01T03:53:06;32.03;;;16.33;;
45806;SDS011;31507;51.494;7.518;2023-03-01T03:55:34;27.27;;;15.77;;
45806;SDS011;31507;51.494;7.518;2023-03-01T03:58:04;25.98;;;16.73;;
45806;SDS011;31507;51.494;7.518;2023-03-01T04:00:43;23.55;;;15.32;;
45806;SDS011;31507;51.494;7.518;2023-03-01T04:03:10;23.10;;;15.05;;
45806;SDS011;31507;51.494;7.518;2023-03-01T04:05:38;26.92;;;16.90;;
45806;SDS011;31507;51.494;7.518;2023-03-01T04:08:04;29.23;;;18.17;;
45806;SDS011;31507;51.494;7.518;2023-03-01T04:10:37;25.58;;;16.80;;
45806;SDS011;31507;51.494;7.518;2023-03-01T04:13:06;30.30;;;17.52;;
45806;SDS011;31507;51.494;7.518;2023-03-01T04:15:32;32.17;;;18.27;;
45806;SDS011;31507;51.494;7.518;2023-03-01T04:17:58;32.53;;;20.00;;
45806;SDS011;31507;51.494;7.518;2023-03-01T04:20:26;33.00;;;19.92;;
45806;SDS011;31507;51.494;7.518;2023-03-01T04:23:07;33.03;;;21.13;;
45806;SDS011;31507;51.494;7.518;2023-03-01T04:25:38;33.60;;;19.40;;
45806;SDS011;31507;51.494;7.518;2023-03-01T04:28:05;33.22;;;20.85;;
45806;SDS011;31507;51.494;7.518;2023-03-01T04:30:32;36.28;;;20.98;;
45806;SDS011;31507;51.494;7.518;2023-03-01T04:33:01;35.90;;;21.38;;
45806;SDS011;31507;51.494;7.518;2023-03-01T04:35:28;35.90;;;21.35;;
45806;SDS011;31507;51.494;7.518;2023-03-01T04:37:54;36.10;;;20.77;;
45806;SDS011;31507;51.494;7.518;2023-03-01T04:40:20;38.78;;;21.55;;
45806;SDS011;31507;51.494;7.518;2023-03-01T04:42:46;32.90;;;20.65;;
45806;SDS011;31507;51.494;7.518;2023-03-01T04:45:14;35.92;;;21.42;;
45806;SDS011;31507;51.494;7.518;2023-03-01T04:47:41;32.50;;;21.40;;
45806;SDS011;31507;51.494;7.518;2023-03-01T04:50:08;39.25;;;22.77;;
45806;SDS011;31507;51.494;7.518;2023-03-01T04:52:34;37.92;;;22.95;;
45806;SDS011;31507;51.494;7.518;2023-03-01T04:55:01;41.75;;;23.70;;
45806;SDS011;31507;51.494;7.518;2023-03-01T04:57:28;37.83;;;23.70;;
45806;SDS011;31507;51.494;7.518;2023-03-01T04:59:54;39.15;;;22.85;;
45806;SDS011;31507;51.494;7.518;2023-03-01T05:02:19;37.92;;;22.65;;
45806;SDS011;31507;51.494;7.518;2023-03-01T05:04:45;38.47;;;22.73;;
45806;SDS011;31507;51.494;7.518;2023-03-01T05:07:11;37.92;;;22.45;;
45806;SDS011;31507;51.494;7.518;2023-03-01T05:09:37;38.45;;;23.52;;
45806;SDS011;31507;51.494;7.518;2023-03-01T05:12:04;36.00;;;21.95;;
45806;SDS011;31507;51.494;7.518;2023-03-01T05:14:29;37.67;;;21.38;;
45806;SDS011;31507;51.494;7.518;2023-03-01T05:16:55;31.55;;;20.33;;
45806;SDS011;31507;51.494;7.518;2023-03-01T05:19:28;37.53;;;21.70;;
45806;SDS011;31507;51.494;7.518;2023-03-01T05:21:55;41.42;;;22.10;;
45806;SDS011;31507;51.494;7.518;2023-03-01T05:24:31;37.95;;;23.05;;
45806;SDS011;31507;51.494;7.518;2023-03-01T05:26:58;40.00;;;24.02;;
45806;SDS011;31507;51.494;7.518;2023-03-01T05:29:24;36.00;;;21.88;;
45806;SDS011;31507;51.494;7.518;2023-03-01T05:31:53;36.50;;;20.75;;
45806;SDS011;31507;51.494;7.518;2023-03-01T05:34:24;34.58;;;20.13;;
45806;SDS011;31507;51.494;7.518;2023-03-01T05:36:51;28.85;;;20.90;;
45806;SDS011;31507;51.494;7.518;2023-03-01T05:39:19;35.08;;;20.15;;
45806;SDS011;31507;51.494;7.518;2023-03-01T05:41:51;38.50;;;21.90;;
45806;SDS011;31507;51.494;7.518;2023-03-01T05:44:18;38.42;;;22.08;;
45806;SDS011;31507;51.494;7.518;2023-03-01T05:46:44;31.90;;;21.00;;
45806;SDS011;31507;51.494;7.518;2023-03-01T05:49:10;35.30;;;20.73;;
45806;SDS011;31507;51.494;7.518;2023-03-01T05:51:38;36.05;;;20.45;;
45806;SDS011;31507;51.494;7.518;2023-03-01T05:54:04;34.35;;;20.73;;
45806;SDS011;31507;51.494;7.518;2023-03-01T05:56:32;32.63;;;20.90;;
45806;SDS011;31507;51.494;7.518;2023-03-01T05:58:59;39.42;;;21.45;;
45806;SDS011;31507;51.494;7.518;2023-03-01T06:01:25;34.22;;;20.75;;
45806;SDS011;31507;51.494;7.518;2023-03-01T06:03:50;34.42;;;21.40;;
45806;SDS011;31507;51.494;7.518;2023-03-01T06:06:16;37.65;;;22.65;;
45806;SDS011;31507;51.494;7.518;2023-03-01T06:08:41;36.85;;;21.63;;
45806;SDS011;31507;51.494;7.518;2023-03-01T06:11:07;42.33;;;21.98;;
45806;SDS011;31507;51.494;7.518;2023-03-01T06:13:33;31.67;;;22.33;;
45806;SDS011;31507;51.494;7.518;2023-03-01T06:15:58;45.15;;;23.98;;
45806;SDS011;31507;51.494;7.518;2023-03-01T06:18:24;39.03;;;22.80;;
45806;SDS011;31507;51.494;7.518;2023-03-01T06:20:53;45.92;;;23.17;;
45806;SDS011;31507;51.494;7.518;2023-03-01T06:23:20;42.88;;;22.35;;
45806;SDS011;31507;51.494;7.518;2023-03-01T06:25:46;34.67;;;22.95;;
45806;SDS011;31507;51.494;7.518;2023-03-01T06:28:11;36.55;;;21.80;;
45806;SDS011;31507;51.494;7.518;2023-03-01T06:30:37;35.72;;;21.45;;
45806;SDS011;31507;51.494;7.518;2023-03-01T06:33:02;41.88;;;22.33;;
45806;SDS011;31507;51.494;7.518;2023-03-01T06:35:28;40.70;;;23.42;;
45806;SDS011;31507;51.494;7.518;2023-03-01T06:37:55;33.28;;;21.02;;
45806;SDS011;31507;51.494;7.518;2023-03-01T06:40:22;43.28;;;20.33;;
45806;SDS011;31507;51.494;7.518;2023-03-01T06:42:48;34.28;;;22.05;;
45806;SDS011;31507;51.494;7.518;2023-03-01T06:45:15;37.92;;;21.17;;
45806;SDS011;31507;51.494;7.518;2023-03-01T06:47:41;41.35;;;21.77;;
45806;SDS011;31507;51.494;7.518;2023-03-01T06:50:07;35.95;;;22.33;;
45806;SDS011;31507;51.494;7.518;2023-03-01T06:52:33;38.85;;;21.80;;
45806;SDS011;31507;51.494;7.518;2023-03-01T06:54:59;34.90;;;21.33;;
45806;SDS011;31507;51.494;7.518;2023-03-01T06:57:25;43.75;;;25.40;;
45806;SDS011;31507;51.494;7.518;2023-03-01T06:59:51;47.35;;;25.42;;
45806;SDS011;31507;51.494;7.518;2023-03-01T07:02:16;43.25;;;24.35;;
45806;SDS011;31507;51.494;7.518;2023-03-01T07:04:42;44.65;;;25.80;;
45806;SDS011;31507;51.494;7.518;2023-03-01T07:07:08;47.85;;;26.13;;
45806;SDS011;31507;51.494;7.518;2023-03-01T07:09:34;44.25;;;25.30;;
45806;SDS011;31507;51.494;7.518;2023-03-01T07:12:00;46.67;;;25.40;;
45806;SDS011;31507;51.494;7.518;2023-03-01T07:14:25;42.05;;;23.92;;
45806;SDS011;31507;51.494;7.518;2023-03-01T07:16:52;44.78;;;25.13;;
45806;SDS011;31507;51.494;7.518;2023-03-01T07:19:18;39.38;;;24.48;;
45806;SDS011;31507;51.494;7.518;2023-03-01T07:21:44;43.50;;;23.58;;
45806;SDS011;31507;51.494;7.518;2023-03-01T07:24:09;41.83;;;22.20;;
45806;SDS011;31507;51.494;7.518;2023-03-01T07:26:35;34.90;;;22.10;;
45806;SDS011;31507;51.494;7.518;2023-03-01T07:29:02;31.65;;;19.92;;
45806;SDS011;31507;51.494;7.518;2023-03-01T07:31:30;32.40;;;19.88;;
45806;SDS011;31507;51.494;7.518;2023-03-01T07:33:56;31.40;;;18.33;;
45806;SDS011;31507;51.494;7.518;2023-03-01T07:36:22;29.48;;;18.63;;
45806;SDS011;31507;51.494;7.518;2023-03-01T07:38:48;33.63;;;18.42;;
45806;SDS011;31507;51.494;7.518;2023-03-01T07:41:14;33.35;;;17.48;;
45806;SDS011;31507;51.494;7.518;2023-03-01T07:43:40;27.27;;;16.17;;
45806;SDS011;31507;51.494;7.518;2023-03-01T07:46:06;28.13;;;16.48;;
45806;SDS011;31507;51.494;7.518;2023-03-01T07:48:32;22.27;;;14.90;;
45806;SDS011;31507;51.494;7.518;2023-03-01T07:51:01;26.73;;;16.17;;
45806;SDS011;31507;51.494;7.518;2023-03-01T07:53:29;22.83;;;14.50;;
45806;SDS011;31507;51.494;7.518;2023-03-01T07:58:28;27.17;;;14.38;;
45806;SDS011;31507;51.494;7.518;2023-03-01T08:00:53;26.00;;;13.70;;
45806;SDS011;31507;51.494;7.518;2023-03-01T08:03:19;21.63;;;12.70;;
45806;SDS011;31507;51.494;7.518;2023-03-01T08:05:44;18.42;;;12.57;;
45806;SDS011;31507;51.494;7.518;2023-03-01T08:08:10;20.55;;;12.32;;
45806;SDS011;31507;51.494;7.518;2023-03-01T08:10:36;18.42;;;10.98;;
45806;SDS011;31507;51.494;7.518;2023-03-01T08:13:02;18.40;;;11.15;;
45806;SDS011;31507;51.494;7.518;2023-03-01T08:15:27;21.45;;;9.85;;
45806;SDS011;31507;51.494;7.518;2023-03-01T08:17:53;16.65;;;9.30;;
45806;SDS011;31507;51.494;7.518;2023-03-01T08:20:18;14.50;;;9.23;;
45806;SDS011;31507;51.494;7.518;2023-03-01T08:22:44;17.88;;;8.88;;
45806;SDS011;31507;51.494;7.518;2023-03-01T08:25:10;13.88;;;8.75;;
45806;SDS011;31507;51.494;7.518;2023-03-01T08:27:35;16.95;;;8.52;;
45806;SDS011;31507;51.494;7.518;2023-03-01T08:30:01;11.82;;;7.93;;
45806;SDS011;31507;51.494;7.518;2023-03-01T08:32:28;14.00;;;9.00;;
45806;SDS011;31507;51.494;7.518;2023-03-01T08:34:54;12.95;;;8.88;;
45806;SDS011;31507;51.494;7.518;2023-03-01T08:37:19;17.55;;;8.82;;
45806;SDS011;31507;51.494;7.518;2023-03-01T08:39:45;12.82;;;8.55;;
45806;SDS011;31507;51.494;7.518;2023-03-01T08:42:11;22.65;;;8.57;;
45806;SDS011;31507;51.494;7.518;2023-03-01T08:44:37;12.50;;;8.85;;
45806;SDS011;31507;51.494;7.518;2023-03-01T08:47:02;12.70;;;7.80;;
45806;SDS011;31507;51.494;7.518;2023-03-01T08:49:29;12.68;;;8.25;;
45806;SDS011;31507;51.494;7.518;2023-03-01T08:51:57;12.05;;;8.55;;
45806;SDS011;31507;51.494;7.518;2023-03-01T08:54:23;17.77;;;8.02;;
45806;SDS011;31507;51.494;7.518;2023-03-01T08:56:48;11.48;;;8.15;;
45806;SDS011;31507;51.494;7.518;2023-03-01T08:59:15;11.25;;;7.95;;
45806;SDS011;31507;51.494;7.518;2023-03-01T09:01:42;15.25;;;8.60;;
45806;SDS011;31507;51.494;7.518;2023-03-01T09:04:09;16.30;;;7.78;;
45806;SDS011;31507;51.494;7.518;2023-03-01T09:06:35;11.45;;;7.70;;
45806;SDS011;31507;51.494;7.518;2023-03-01T09:09:01;13.20;;;8.10;;
45806;SDS011;31507;51.494;7.518;2023-03-01T09:11:28;14.07;;;7.75;;
45806;SDS011;31507;51.494;7.518;2023-03-01T09:13:54;11.65;;;7.50;;
45806;SDS011;31507;51.494;7.518;2023-03-01T09:16:20;13.95;;;8.00;;
45806;SDS011;31507;51.494;7.518;2023-03-01T09:18:51;9.55;;;7.00;;
45806;SDS011;31507;51.494;7.518;2023-03-01T09:21:18;14.07;;;7.47;;
45806;SDS011;31507;51.494;7.518;2023-03-01T09:23:46;10.35;;;6.70;;
45806;SDS011;31507;51.494;7.518;2023-03-01T09:26:14;11.73;;;6.63;;
45806;SDS011;31507;51.494;7.518;2023-03-01T09:31:13;11.52;;;6.22;;
45806;SDS011;31507;51.494;7.518;2023-03-01T09:33:40;10.55;;;6.00;;
45806;SDS011;31507;51.494;7.518;2023-03-01T09:36:13;11.90;;;6.95;;
45806;SDS011;31507;51.494;7.518;2023-03-01T09:38:42;7.88;;;5.75;;
45806;SDS011;31507;51.494;7.518;2023-03-01T09:41:18;8.88;;;5.85;;
45806;SDS011;31507;51.494;7.518;2023-03-01T09:44:03;10.25;;;6.43;;
45806;SDS011;31507;51.494;7.518;2023-03-01T09:46:43;14.38;;;6.50;;
45806;SDS011;31507;51.494;7.518;2023-03-01T09:49:11;10.75;;;5.93;;
45806;SDS011;31507;51.494;7.518;2023-03-01T09:51:42;13.50;;;5.90;;
45806;SDS011;31507;51.494;7.518;2023-03-01T09:54:10;14.85;;;5.55;;
45806;SDS011;31507;51.494;7.518;2023-03-01T09:56:37;8.70;;;5.22;;
45806;SDS011;31507;51.494;7.518;2023-03-01T10:04:35;9.07;;;5.80;;
45806;SDS011;31507;51.494;7.518;2023-03-01T10:09:40;8.75;;;5.47;;
45806;SDS011;31507;51.494;7.518;2023-03-01T10:12:10;8.38;;;5.38;;
45806;SDS011;31507;51.494;7.518;2023-03-01T10:14:48;9.32;;;5.30;;
45806;SDS011;31507;51.494;7.518;2023-03-01T10:23:16;10.15;;;5.00;;
45806;SDS011;31507;51.494;7.518;2023-03-01T10:28:21;11.15;;;6.10;;
45806;SDS011;31507;51.494;7.518;2023-03-01T10:31:12;8.80;;;5.72;;
45806;SDS011;31507;51.494;7.518;2023-03-01T10:33:41;12.73;;;6.18;;
45806;SDS011;31507;51.494;7.518;2023-03-01T10:36:07;9.93;;;5.75;;
45806;SDS011;31507;51.494;7.518;2023-03-01T10:41:17;7.18;;;5.40;;
45806;SDS011;31507;51.494;7.518;2023-03-01T10:43:47;10.30;;;6.32;;
45806;SDS011;31507;51.494;7.518;2023-03-01T10:51:32;9.07;;;5.85;;
45806;SDS011;31507;51.494;7.518;2023-03-01T10:53:58;11.82;;;5.70;;
45806;SDS011;31507;51.494;7.518;2023-03-01T10:56:23;10.10;;;5.50;;
45806;SDS011;31507;51.494;7.518;2023-03-01T10:58:57;12.75;;;5.15;;
45806;SDS011;31507;51.494;7.518;2023-03-01T11:06:28;11.50;;;6.00;;
45806;SDS011;31507;51.494;7.518;2023-03-01T11:08:54;7.90;;;5.13;;
45806;SDS011;31507;51.494;7.518;2023-03-01T11:14:03;9.77;;;5.60;;
45806;SDS011;31507;51.494;7.518;2023-03-01T11:16:36;12.52;;;5.97;;
45806;SDS011;31507;51.494;7.518;2023-03-01T11:21:55;16.15;;;6.07;;
45806;SDS011;31507;51.494;7.518;2023-03-01T11:24:33;11.45;;;5.80;;
45806;SDS011;31507;51.494;7.518;2023-03-01T11:27:00;11.52;;;5.78;;
45806;SDS011;31507;51.494;7.518;2023-03-01T11:29:34;8.35;;;5.60;;
45806;SDS011;31507;51.494;7.518;2023-03-01T11:32:05;8.20;;;5.70;;
45806;SDS011;31507;51.494;7.518;2023-03-01T11:37:21;10.75;;;5.57;;
45806;SDS011;31507;51.494;7.518;2023-03-01T11:39:59;8.73;;;5.82;;
45806;SDS011;31507;51.494;7.518;2023-03-01T11:42:35;9.30;;;5.70;;
45806;SDS011;31507;51.494;7.518;2023-03-01T11:45:19;11.40;;;5.63;;
45806;SDS011;31507;51.494;7.518;2023-03-01T11:55:57;11.95;;;6.10;;
45806;SDS011;31507;51.494;7.518;2023-03-01T12:06:59;8.85;;;5.97;;
45806;SDS011;31507;51.494;7.518;2023-03-01T12:09:38;14.50;;;6.47;;
45806;SDS011;31507;51.494;7.518;2023-03-01T12:12:27;11.68;;;6.05;;
45806;SDS011;31507;51.494;7.518;2023-03-01T12:20:30;14.13;;;6.38;;
45806;SDS011;31507;51.494;7.518;2023-03-01T12:33:31;11.50;;;6.20;;
45806;SDS011;31507;51.494;7.518;2023-03-01T12:44:32;12.65;;;5.90;;
45806;SDS011;31507;51.494;7.518;2023-03-01T12:50:35;8.57;;;5.80;;
45806;SDS011;31507;51.494;7.518;2023-03-01T12:53:14;12.93;;;6.00;;
45806;SDS011;31507;51.494;7.518;2023-03-01T12:55:51;8.25;;;5.75;;
45806;SDS011;31507;51.494;7.518;2023-03-01T13:06:41;8.75;;;5.97;;
45806;SDS011;31507;51.494;7.518;2023-03-01T13:09:45;9.35;;;6.03;;
45806;SDS011;31507;51.494;7.518;2023-03-01T13:17:47;8.90;;;5.68;;
45806;SDS011;31507;51.494;7.518;2023-03-01T13:28:40;10.38;;;5.82;;
45806;SDS011;31507;51.494;7.518;2023-03-01T13:33:45;8.18;;;5.85;;
45806;SDS011;31507;51.494;7.518;2023-03-01T13:44:21;11.52;;;5.93;;
45806;SDS011;31507;51.494;7.518;2023-03-01T13:46:53;9.50;;;6.00;;
45806;SDS011;31507;51.494;7.518;2023-03-01T13:49:26;13.30;;;5.53;;
45806;SDS011;31507;51.494;7.518;2023-03-01T13:51:56;8.95;;;5.25;;
45806;SDS011;31507;51.494;7.518;2023-03-01T13:54:26;7.10;;;5.00;;
45806;SDS011;31507;51.494;7.518;2023-03-01T13:56:55;7.50;;;5.10;;
45806;SDS011;31507;51.494;7.518;2023-03-01T13:59:23;7.13;;;5.40;;
45806;SDS011;31507;51.494;7.518;2023-03-01T14:01:55;11.43;;;5.55;;
45806;SDS011;31507;51.494;7.518;2023-03-01T14:04:24;7.80;;;5.43;;
45806;SDS011;31507;51.494;7.518;2023-03-01T14:07:08;8.25;;;4.78;;
45806;SDS011;31507;51.494;7.518;2023-03-01T14:09:39;7.72;;;5.50;;
45806;SDS011;31507;51.494;7.518;2023-03-01T14:20:23;6.22;;;4.80;;
45806;SDS011;31507;51.494;7.518;2023-03-01T14:22:54;9.48;;;5.40;;
45806;SDS011;31507;51.494;7.518;2023-03-01T14:25:30;7.65;;;5.40;;
45806;SDS011;31507;51.494;7.518;2023-03-01T14:30:33;8.32;;;5.15;;
45806;SDS011;31507;51.494;7.518;2023-03-01T14:33:04;9.98;;;4.95;;
45806;SDS011;31507;51.494;7.518;2023-03-01T14:35:42;8.15;;;5.57;;
45806;SDS011;31507;51.494;7.518;2023-03-01T14:38:19;7.28;;;4.80;;
45806;SDS011;31507;51.494;7.518;2023-03-01T14:40:46;6.75;;;4.82;;
45806;SDS011;31507;51.494;7.518;2023-03-01T14:43:18;8.43;;;4.82;;
45806;SDS011;31507;51.494;7.518;2023-03-01T14:45:48;6.80;;;5.03;;
45806;SDS011;31507;51.494;7.518;2023-03-01T14:48:15;8.20;;;4.85;;
45806;SDS011;31507;51.494;7.518;2023-03-01T14:50:42;9.52;;;4.80;;
45806;SDS011;31507;51.494;7.518;2023-03-01T14:53:16;9.98;;;5.03;;
45806;SDS011;31507;51.494;7.518;2023-03-01T14:55:46;10.63;;;5.50;;
45806;SDS011;31507;51.494;7.518;2023-03-01T14:58:14;12.15;;;5.55;;
45806;SDS011;31507;51.494;7.518;2023-03-01T15:00:53;9.80;;;5.22;;
45806;SDS011;31507;51.494;7.518;2023-03-01T15:03:37;8.27;;;5.32;;
45806;SDS011;31507;51.494;7.518;2023-03-01T15:06:12;8.65;;;5.28;;
45806;SDS011;31507;51.494;7.518;2023-03-01T15:08:42;8.15;;;4.75;;
45806;SDS011;31507;51.494;7.518;2023-03-01T15:13:48;5.82;;;4.80;;
45806;SDS011;31507;51.494;7.518;2023-03-01T15:16:15;6.70;;;5.07;;
45806;SDS011;31507;51.494;7.518;2023-03-01T15:18:54;13.93;;;5.10;;
45806;SDS011;31507;51.494;7.518;2023-03-01T15:21:31;7.25;;;5.25;;
45806;SDS011;31507;51.494;7.518;2023-03-01T15:26:40;10.57;;;4.88;;
45806;SDS011;31507;51.494;7.518;2023-03-01T15:29:16;6.93;;;4.85;;
45806;SDS011;31507;51.494;7.518;2023-03-01T15:31:52;7.13;;;5.28;;
45806;SDS011;31507;51.494;7.518;2023-03-01T15:37:03;8.15;;;5.70;;
45806;SDS011;31507;51.494;7.518;2023-03-01T15:39:41;7.40;;;4.63;;
45806;SDS011;31507;51.494;7.518;2023-03-01T15:42:12;8.15;;;5.80;;
45806;SDS011;31507;51.494;7.518;2023-03-01T15:47:49;9.57;;;5.10;;
45806;SDS011;31507;51.494;7.518;2023-03-01T15:50:19;8.93;;;4.75;;
45806;SDS011;31507;51.494;7.518;2023-03-01T15:52:47;6.55;;;4.82;;
45806;SDS011;31507;51.494;7.518;2023-03-01T15:55:26;8.55;;;5.22;;
45806;SDS011;31507;51.494;7.518;2023-03-01T15:57:58;7.82;;;5.18;;
45806;SDS011;31507;51.494;7.518;2023-03-01T16:00:26;8.05;;;5.10;;
45806;SDS011;31507;51.494;7.518;2023-03-01T16:02:52;8.65;;;5.00;;
45806;SDS011;31507;51.494;7.518;2023-03-01T16:05:25;7.97;;;4.78;;
45806;SDS011;31507;51.494;7.518;2023-03-01T16:07:59;8.18;;;5.25;;
45806;SDS011;31507;51.494;7.518;2023-03-01T16:10:25;7.43;;;4.25;;
45806;SDS011;31507;51.494;7.518;2023-03-01T16:12:52;6.75;;;4.75;;
45806;SDS011;31507;51.494;7.518;2023-03-01T16:15:19;11.30;;;6.10;;
45806;SDS011;31507;51.494;7.518;2023-03-01T16:17:48;8.40;;;5.55;;
45806;SDS011;31507;51.494;7.518;2023-03-01T16:20:14;8.50;;;4.75;;
45806;SDS011;31507;51.494;7.518;2023-03-01T16:22:41;8.05;;;4.60;;
45806;SDS011;31507;51.494;7.518;2023-03-01T16:25:11;8.90;;;4.93;;
45806;SDS011;31507;51.494;7.518;2023-03-01T16:27:41;8.52;;;4.88;;
45806;SDS011;31507;51.494;7.518;2023-03-01T16:30:08;7.80;;;5.00;;
45806;SDS011;31507;51.494;7.518;2023-03-01T16:32:37;7.85;;;5.28;;
45806;SDS011;31507;51.494;7.518;2023-03-01T16:35:07;12.90;;;5.10;;
45806;SDS011;31507;51.494;7.518;2023-03-01T16:37:35;10.70;;;4.93;;
45806;SDS011;31507;51.494;7.518;2023-03-01T16:40:01;8.00;;;4.78;;
45806;SDS011;31507;51.494;7.518;2023-03-01T16:42:32;8.80;;;4.90;;
45806;SDS011;31507;51.494;7.518;2023-03-01T16:44:59;10.70;;;5.10;;
45806;SDS011;31507;51.494;7.518;2023-03-01T16:47:25;10.02;;;5.10;;
45806;SDS011;31507;51.494;7.518;2023-03-01T16:49:51;7.95;;;4.55;;
45806;SDS011;31507;51.494;7.518;2023-03-01T16:52:18;8.57;;;4.43;;
45806;SDS011;31507;51.494;7.518;2023-03-01T16:54:44;10.27;;;4.95;;
45806;SDS011;31507;51.494;7.518;2023-03-01T16:57:10;7.03;;;4.53;;
45806;SDS011;31507;51.494;7.518;2023-03-01T16:59:35;8.13;;;4.38;;
45806;SDS011;31507;51.494;7.518;2023-03-01T17:02:02;6.45;;;4.57;;
45806;SDS011;31507;51.494;7.518;2023-03-01T17:04:29;7.05;;;4.50;;
45806;SDS011;31507;51.494;7.518;2023-03-01T17:06:54;7.60;;;4.15;;
45806;SDS011;31507;51.494;7.518;2023-03-01T17:09:20;12.25;;;4.70;;
45806;SDS011;31507;51.494;7.518;2023-03-01T17:11:47;7.05;;;4.13;;
45806;SDS011;31507;51.494;7.518;2023-03-01T17:14:13;13.05;;;4.28;;
45806;SDS011;31507;51.494;7.518;2023-03-01T17:16:41;7.65;;;4.15;;
45806;SDS011;31507;51.494;7.518;2023-03-01T17:19:07;8.90;;;4.38;;